sensor_id;sensor_type;location;lat;lon;timestamp;temperature;humidity
37998;DHT22;24079;51.824;4.682;2023-03-11T00:01:55;2.00;99.90
37998;DHT22;24079;51.824;4.682;2023-03-11T00:04:20;1.90;99.90
37998;DHT22;24079;51.824;4.682;2023-03-11T00:06:46;2.00;99.90
37998;DHT22;24079;51.824;4.682;2023-03-11T00:09:12;2.00;99.90
37998;DHT22;24079;51.824;4.682;2023-03-11T00:11:37;2.00;99.90
37998;DHT22;24079;51.824;4.682;2023-03-11T00:14:03;2.10;99.90
37998;DHT22;24079;51.824;4.682;2023-03-11T00:16:28;2.10;99.90
37998;DHT22;24079;51.824;4.682;2023-03-11T00:18:54;2.20;99.90
37998;DHT22;24079;51.824;4.682;2023-03-11T00:21:20;2.20;99.90
37998;DHT22;24079;51.824;4.682;2023-03-11T00:23:46;2.20;99.90
37998;DHT22;24079;51.824;4.682;2023-03-11T00:26:12;2.20;99.90
37998;DHT22;24079;51.824;4.682;2023-03-11T00:28:38;2.10;99.90
37998;DHT22;24079;51.824;4.682;2023-03-11T00:31:04;2.10;99.90
37998;DHT22;24079;51.824;4.682;2023-03-11T00:33:30;2.00;99.90
37998;DHT22;24079;51.824;4.682;2023-03-11T00:35:55;2.10;99.90
37998;DHT22;24079;51.824;4.682;2023-03-11T00:38:22;2.10;99.90
37998;DHT22;24079;51.824;4.682;2023-03-11T00:40:48;2.10;99.90
37998;DHT22;24079;51.824;4.682;2023-03-11T00:43:15;2.10;99.90
37998;DHT22;24079;51.824;4.682;2023-03-11T00:45:41;2.10;99.90
37998;DHT22;24079;51.824;4.682;2023-03-11T00:48:08;2.00;99.90
37998;DHT22;24079;51.824;4.682;2023-03-11T00:50:36;2.00;99.90
37998;DHT22;24079;51.824;4.682;2023-03-11T00:53:02;2.00;99.90
37998;DHT22;24079;51.824;4.682;2023-03-11T00:55:30;2.00;99.90
37998;DHT22;24079;51.824;4.682;2023-03-11T00:57:58;2.00;99.90
37998;DHT22;24079;51.824;4.682;2023-03-11T01:00:26;2.00;99.90
37998;DHT22;24079;51.824;4.682;2023-03-11T01:02:53;2.00;99.90
37998;DHT22;24079;51.824;4.682;2023-03-11T01:05:25;2.00;99.90
37998;DHT22;24079;51.824;4.682;2023-03-11T01:07:51;2.00;99.90
37998;DHT22;24079;51.824;4.682;2023-03-11T01:10:17;2.00;99.90
37998;DHT22;24079;51.824;4.682;2023-03-11T01:12:44;2.00;99.90
37998;DHT22;24079;51.824;4.682;2023-03-11T01:15:17;1.90;99.90
37998;DHT22;24079;51.824;4.682;2023-03-11T01:17:43;2.00;99.90
37998;DHT22;24079;51.824;4.682;2023-03-11T01:20:09;2.00;99.90
37998;DHT22;24079;51.824;4.682;2023-03-11T01:22:36;1.90;99.90
37998;DHT22;24079;51.824;4.682;2023-03-11T01:25:02;1.90;99.90
37998;DHT22;24079;51.824;4.682;2023-03-11T01:27:28;1.90;99.90
37998;DHT22;24079;51.824;4.682;2023-03-11T01:29:53;1.90;99.90
37998;DHT22;24079;51.824;4.682;2023-03-11T01:32:19;1.90;99.90
37998;DHT22;24079;51.824;4.682;2023-03-11T01:34:45;1.80;99.90
37998;DHT22;24079;51.824;4.682;2023-03-11T01:37:10;1.80;99.90
37998;DHT22;24079;51.824;4.682;2023-03-11T01:39:36;1.80;99.90
37998;DHT22;24079;51.824;4.682;2023-03-11T01:42:01;1.80;99.90
37998;DHT22;24079;51.824;4.682;2023-03-11T01:44:27;1.80;99.90
37998;DHT22;24079;51.824;4.682;2023-03-11T01:49:20;1.80;99.90
37998;DHT22;24079;51.824;4.682;2023-03-11T01:51:52;1.80;99.90
37998;DHT22;24079;51.824;4.682;2023-03-11T01:54:25;1.80;99.90
37998;DHT22;24079;51.824;4.682;2023-03-11T01:56:51;1.80;99.90
37998;DHT22;24079;51.824;4.682;2023-03-11T01:59:28;1.80;99.90
37998;DHT22;24079;51.824;4.682;2023-03-11T02:02:13;1.70;99.90
37998;DHT22;24079;51.824;4.682;2023-03-11T02:04:41;1.80;99.90
37998;DHT22;24079;51.824;4.682;2023-03-11T02:07:09;1.70;99.90
37998;DHT22;24079;51.824;4.682;2023-03-11T02:09:35;1.70;99.90
37998;DHT22;24079;51.824;4.682;2023-03-11T02:12:02;1.70;99.90
37998;DHT22;24079;51.824;4.682;2023-03-11T02:14:29;1.70;99.90
37998;DHT22;24079;51.824;4.682;2023-03-11T02:16:56;1.70;99.90
37998;DHT22;24079;51.824;4.682;2023-03-11T02:22:02;1.70;99.90
37998;DHT22;24079;51.824;4.682;2023-03-11T02:27:32;1.60;99.90
37998;DHT22;24079;51.824;4.682;2023-03-11T02:29:59;1.60;99.90
37998;DHT22;24079;51.824;4.682;2023-03-11T02:32:26;1.60;99.90
37998;DHT22;24079;51.824;4.682;2023-03-11T02:34:52;1.50;99.90
37998;DHT22;24079;51.824;4.682;2023-03-11T02:37:18;1.50;99.90
37998;DHT22;24079;51.824;4.682;2023-03-11T02:39:47;1.60;99.90
37998;DHT22;24079;51.824;4.682;2023-03-11T02:42:21;1.50;99.90
37998;DHT22;24079;51.824;4.682;2023-03-11T02:45:02;1.50;99.90
37998;DHT22;24079;51.824;4.682;2023-03-11T02:47:28;1.50;99.90
37998;DHT22;24079;51.824;4.682;2023-03-11T02:49:55;1.50;99.90
37998;DHT22;24079;51.824;4.682;2023-03-11T02:52:23;1.50;99.90
37998;DHT22;24079;51.824;4.682;2023-03-11T02:54:49;1.50;99.90
37998;DHT22;24079;51.824;4.682;2023-03-11T02:57:15;1.50;99.90
37998;DHT22;24079;51.824;4.682;2023-03-11T02:59:41;1.50;99.90
37998;DHT22;24079;51.824;4.682;2023-03-11T03:02:07;1.40;99.90
37998;DHT22;24079;51.824;4.682;2023-03-11T03:04:32;1.40;99.90
37998;DHT22;24079;51.824;4.682;2023-03-11T03:06:58;1.50;99.90
37998;DHT22;24079;51.824;4.682;2023-03-11T03:09:24;1.40;99.90
37998;DHT22;24079;51.824;4.682;2023-03-11T03:11:51;1.40;99.90
37998;DHT22;24079;51.824;4.682;2023-03-11T03:14:16;1.40;99.90
37998;DHT22;24079;51.824;4.682;2023-03-11T03:17:02;1.40;99.90
37998;DHT22;24079;51.824;4.682;2023-03-11T03:19:28;1.40;99.90
37998;DHT22;24079;51.824;4.682;2023-03-11T03:21:53;1.30;99.90
37998;DHT22;24079;51.824;4.682;2023-03-11T03:24:19;1.30;99.90
37998;DHT22;24079;51.824;4.682;2023-03-11T03:26:44;1.30;99.90
37998;DHT22;24079;51.824;4.682;2023-03-11T03:29:10;1.30;99.90
37998;DHT22;24079;51.824;4.682;2023-03-11T03:31:37;1.30;99.90
37998;DHT22;24079;51.824;4.682;2023-03-11T03:34:02;1.30;99.90
37998;DHT22;24079;51.824;4.682;2023-03-11T03:36:28;1.30;99.90
37998;DHT22;24079;51.824;4.682;2023-03-11T03:38:55;1.30;99.90
37998;DHT22;24079;51.824;4.682;2023-03-11T03:41:20;1.30;99.90
37998;DHT22;24079;51.824;4.682;2023-03-11T03:43:46;1.30;99.90
37998;DHT22;24079;51.824;4.682;2023-03-11T03:46:12;1.30;99.90
37998;DHT22;24079;51.824;4.682;2023-03-11T03:48:37;1.30;99.90
37998;DHT22;24079;51.824;4.682;2023-03-11T03:51:05;1.30;99.90
37998;DHT22;24079;51.824;4.682;2023-03-11T03:53:33;1.30;99.90
37998;DHT22;24079;51.824;4.682;2023-03-11T03:56:03;1.30;99.90
37998;DHT22;24079;51.824;4.682;2023-03-11T03:58:29;1.30;99.90
37998;DHT22;24079;51.824;4.682;2023-03-11T04:00:56;1.30;99.90
37998;DHT22;24079;51.824;4.682;2023-03-11T04:03:22;1.30;99.90
37998;DHT22;24079;51.824;4.682;2023-03-11T04:05:47;1.20;99.90
37998;DHT22;24079;51.824;4.682;2023-03-11T04:08:13;1.20;99.90
37998;DHT22;24079;51.824;4.682;2023-03-11T04:10:39;1.20;99.90
37998;DHT22;24079;51.824;4.682;2023-03-11T04:13:04;1.20;99.90
37998;DHT22;24079;51.824;4.682;2023-03-11T04:15:30;1.10;99.90
37998;DHT22;24079;51.824;4.682;2023-03-11T04:17:55;1.20;99.90
37998;DHT22;24079;51.824;4.682;2023-03-11T04:20:21;1.10;99.90
37998;DHT22;24079;51.824;4.682;2023-03-11T04:22:47;1.10;99.90
37998;DHT22;24079;51.824;4.682;2023-03-11T04:25:12;1.10;99.90
37998;DHT22;24079;51.824;4.682;2023-03-11T04:27:38;1.10;99.90
37998;DHT22;24079;51.824;4.682;2023-03-11T04:30:08;1.10;99.90
37998;DHT22;24079;51.824;4.682;2023-03-11T04:32:34;1.10;99.90
37998;DHT22;24079;51.824;4.682;2023-03-11T04:35:00;1.10;99.90
37998;DHT22;24079;51.824;4.682;2023-03-11T04:37:27;1.10;99.90
37998;DHT22;24079;51.824;4.682;2023-03-11T04:39:53;1.00;99.90
37998;DHT22;24079;51.824;4.682;2023-03-11T04:42:18;1.00;99.90
37998;DHT22;24079;51.824;4.682;2023-03-11T04:44:44;1.00;99.90
37998;DHT22;24079;51.824;4.682;2023-03-11T04:47:10;1.00;99.90
37998;DHT22;24079;51.824;4.682;2023-03-11T04:49:35;1.00;99.90
37998;DHT22;24079;51.824;4.682;2023-03-11T04:52:01;1.00;99.90
37998;DHT22;24079;51.824;4.682;2023-03-11T04:54:27;1.00;99.90
37998;DHT22;24079;51.824;4.682;2023-03-11T04:56:52;1.00;99.90
37998;DHT22;24079;51.824;4.682;2023-03-11T04:59:18;0.90;99.90
37998;DHT22;24079;51.824;4.682;2023-03-11T05:01:44;0.90;99.90
37998;DHT22;24079;51.824;4.682;2023-03-11T05:04:09;0.90;99.90
37998;DHT22;24079;51.824;4.682;2023-03-11T05:06:36;0.90;99.90
37998;DHT22;24079;51.824;4.682;2023-03-11T05:09:02;0.90;99.90
37998;DHT22;24079;51.824;4.682;2023-03-11T05:11:29;0.90;99.90
37998;DHT22;24079;51.824;4.682;2023-03-11T05:13:55;0.80;99.90
37998;DHT22;24079;51.824;4.682;2023-03-11T05:16:20;0.80;99.90
37998;DHT22;24079;51.824;4.682;2023-03-11T05:18:46;0.80;99.90
37998;DHT22;24079;51.824;4.682;2023-03-11T05:21:12;0.80;99.90
37998;DHT22;24079;51.824;4.682;2023-03-11T05:23:38;0.80;99.90
37998;DHT22;24079;51.824;4.682;2023-03-11T05:26:04;0.80;99.90
37998;DHT22;24079;51.824;4.682;2023-03-11T05:28:30;0.80;99.90
37998;DHT22;24079;51.824;4.682;2023-03-11T05:30:55;0.80;99.90
37998;DHT22;24079;51.824;4.682;2023-03-11T05:33:21;0.80;99.90
37998;DHT22;24079;51.824;4.682;2023-03-11T05:35:46;0.80;99.90
37998;DHT22;24079;51.824;4.682;2023-03-11T05:38:12;0.80;99.90
37998;DHT22;24079;51.824;4.682;2023-03-11T05:40:38;0.80;99.90
37998;DHT22;24079;51.824;4.682;2023-03-11T05:43:04;0.70;99.90
37998;DHT22;24079;51.824;4.682;2023-03-11T05:45:30;0.70;99.90
37998;DHT22;24079;51.824;4.682;2023-03-11T05:47:55;0.70;99.90
37998;DHT22;24079;51.824;4.682;2023-03-11T05:50:21;0.70;99.90
37998;DHT22;24079;51.824;4.682;2023-03-11T05:52:47;0.70;99.90
37998;DHT22;24079;51.824;4.682;2023-03-11T05:55:13;0.70;99.90
37998;DHT22;24079;51.824;4.682;2023-03-11T05:57:39;0.60;99.90
37998;DHT22;24079;51.824;4.682;2023-03-11T06:00:06;0.60;99.90
37998;DHT22;24079;51.824;4.682;2023-03-11T06:02:37;0.70;99.90
37998;DHT22;24079;51.824;4.682;2023-03-11T06:05:03;0.70;99.90
37998;DHT22;24079;51.824;4.682;2023-03-11T06:07:29;0.70;99.90
37998;DHT22;24079;51.824;4.682;2023-03-11T06:09:55;0.70;99.90
37998;DHT22;24079;51.824;4.682;2023-03-11T06:12:20;0.70;99.90
37998;DHT22;24079;51.824;4.682;2023-03-11T06:14:46;0.70;99.90
37998;DHT22;24079;51.824;4.682;2023-03-11T06:17:12;0.70;99.90
37998;DHT22;24079;51.824;4.682;2023-03-11T06:19:37;0.70;99.90
37998;DHT22;24079;51.824;4.682;2023-03-11T06:22:03;0.70;99.90
37998;DHT22;24079;51.824;4.682;2023-03-11T06:24:28;0.80;99.90
37998;DHT22;24079;51.824;4.682;2023-03-11T06:26:54;0.80;99.90
37998;DHT22;24079;51.824;4.682;2023-03-11T06:29:20;0.80;99.90
37998;DHT22;24079;51.824;4.682;2023-03-11T06:31:48;0.80;99.90
37998;DHT22;24079;51.824;4.682;2023-03-11T06:34:14;0.80;99.90
37998;DHT22;24079;51.824;4.682;2023-03-11T06:36:41;0.80;99.90
37998;DHT22;24079;51.824;4.682;2023-03-11T06:39:07;0.90;99.90
37998;DHT22;24079;51.824;4.682;2023-03-11T06:41:34;0.90;99.90
37998;DHT22;24079;51.824;4.682;2023-03-11T06:43:59;0.90;99.90
37998;DHT22;24079;51.824;4.682;2023-03-11T06:46:25;0.90;99.90
37998;DHT22;24079;51.824;4.682;2023-03-11T06:48:51;1.00;99.90
37998;DHT22;24079;51.824;4.682;2023-03-11T06:51:18;1.00;99.90
37998;DHT22;24079;51.824;4.682;2023-03-11T06:53:47;1.00;99.90
37998;DHT22;24079;51.824;4.682;2023-03-11T06:56:13;1.10;99.90
37998;DHT22;24079;51.824;4.682;2023-03-11T06:58:40;1.10;99.90
37998;DHT22;24079;51.824;4.682;2023-03-11T07:01:11;1.20;99.90
37998;DHT22;24079;51.824;4.682;2023-03-11T07:03:38;1.20;99.90
37998;DHT22;24079;51.824;4.682;2023-03-11T07:06:04;1.30;99.90
37998;DHT22;24079;51.824;4.682;2023-03-11T07:08:30;1.30;99.90
37998;DHT22;24079;51.824;4.682;2023-03-11T07:11:04;1.30;99.90
37998;DHT22;24079;51.824;4.682;2023-03-11T07:13:30;1.40;99.90
37998;DHT22;24079;51.824;4.682;2023-03-11T07:16:08;1.50;99.90
37998;DHT22;24079;51.824;4.682;2023-03-11T07:18:35;1.50;99.90
37998;DHT22;24079;51.824;4.682;2023-03-11T07:21:06;1.60;99.90
37998;DHT22;24079;51.824;4.682;2023-03-11T07:23:32;1.60;99.90
37998;DHT22;24079;51.824;4.682;2023-03-11T07:25:58;1.60;99.90
37998;DHT22;24079;51.824;4.682;2023-03-11T07:28:25;1.70;99.90
37998;DHT22;24079;51.824;4.682;2023-03-11T07:30:52;1.70;99.90
37998;DHT22;24079;51.824;4.682;2023-03-11T07:33:18;1.70;99.90
37998;DHT22;24079;51.824;4.682;2023-03-11T07:35:44;1.80;99.90
37998;DHT22;24079;51.824;4.682;2023-03-11T07:38:11;2.30;99.90
37998;DHT22;24079;51.824;4.682;2023-03-11T07:40:37;3.00;99.90
37998;DHT22;24079;51.824;4.682;2023-03-11T07:43:02;3.70;99.90
37998;DHT22;24079;51.824;4.682;2023-03-11T07:45:28;4.30;99.90
37998;DHT22;24079;51.824;4.682;2023-03-11T07:47:54;4.80;99.90
37998;DHT22;24079;51.824;4.682;2023-03-11T07:50:19;5.20;99.90
37998;DHT22;24079;51.824;4.682;2023-03-11T07:52:47;5.40;99.90
37998;DHT22;24079;51.824;4.682;2023-03-11T07:55:14;5.60;99.90
37998;DHT22;24079;51.824;4.682;2023-03-11T07:57:39;5.90;99.90
37998;DHT22;24079;51.824;4.682;2023-03-11T08:00:06;6.30;99.90
37998;DHT22;24079;51.824;4.682;2023-03-11T08:02:31;6.90;99.90
37998;DHT22;24079;51.824;4.682;2023-03-11T08:04:57;7.20;99.90
37998;DHT22;24079;51.824;4.682;2023-03-11T08:07:23;7.40;99.90
37998;DHT22;24079;51.824;4.682;2023-03-11T08:09:48;7.60;99.90
37998;DHT22;24079;51.824;4.682;2023-03-11T08:12:14;7.70;99.90
37998;DHT22;24079;51.824;4.682;2023-03-11T08:14:40;7.30;99.90
37998;DHT22;24079;51.824;4.682;2023-03-11T08:17:08;7.10;99.90
37998;DHT22;24079;51.824;4.682;2023-03-11T08:19:34;6.70;99.90
37998;DHT22;24079;51.824;4.682;2023-03-11T08:22:02;6.50;99.90
37998;DHT22;24079;51.824;4.682;2023-03-11T08:24:28;6.50;99.90
37998;DHT22;24079;51.824;4.682;2023-03-11T08:26:53;6.40;99.90
37998;DHT22;24079;51.824;4.682;2023-03-11T08:29:24;6.70;99.90
37998;DHT22;24079;51.824;4.682;2023-03-11T08:31:50;6.90;99.90
37998;DHT22;24079;51.824;4.682;2023-03-11T08:34:15;7.00;99.90
37998;DHT22;24079;51.824;4.682;2023-03-11T08:36:41;7.00;99.90
37998;DHT22;24079;51.824;4.682;2023-03-11T08:39:07;6.70;99.90
37998;DHT22;24079;51.824;4.682;2023-03-11T08:41:33;6.70;99.90
37998;DHT22;24079;51.824;4.682;2023-03-11T08:43:58;6.60;99.90
37998;DHT22;24079;51.824;4.682;2023-03-11T08:46:31;6.60;99.90
37998;DHT22;24079;51.824;4.682;2023-03-11T08:48:58;6.90;99.90
37998;DHT22;24079;51.824;4.682;2023-03-11T08:51:24;7.10;99.90
37998;DHT22;24079;51.824;4.682;2023-03-11T08:53:51;7.30;99.90
37998;DHT22;24079;51.824;4.682;2023-03-11T08:56:17;7.30;99.90
37998;DHT22;24079;51.824;4.682;2023-03-11T08:58:43;7.20;99.90
37998;DHT22;24079;51.824;4.682;2023-03-11T09:01:10;7.20;99.90
37998;DHT22;24079;51.824;4.682;2023-03-11T09:03:37;7.20;99.90
37998;DHT22;24079;51.824;4.682;2023-03-11T09:06:06;7.10;99.90
37998;DHT22;24079;51.824;4.682;2023-03-11T09:08:33;7.20;99.90
37998;DHT22;24079;51.824;4.682;2023-03-11T09:10:59;7.30;99.90
37998;DHT22;24079;51.824;4.682;2023-03-11T09:13:25;7.40;99.90
37998;DHT22;24079;51.824;4.682;2023-03-11T09:15:52;7.50;99.90
37998;DHT22;24079;51.824;4.682;2023-03-11T09:18:19;7.50;99.90
37998;DHT22;24079;51.824;4.682;2023-03-11T09:20:45;7.40;99.90
37998;DHT22;24079;51.824;4.682;2023-03-11T09:23:13;7.30;99.90
37998;DHT22;24079;51.824;4.682;2023-03-11T09:25:40;7.40;99.90
37998;DHT22;24079;51.824;4.682;2023-03-11T09:28:06;7.50;99.90
37998;DHT22;24079;51.824;4.682;2023-03-11T09:30:32;7.40;99.90
37998;DHT22;24079;51.824;4.682;2023-03-11T09:32:58;7.30;99.90
37998;DHT22;24079;51.824;4.682;2023-03-11T09:35:25;7.40;99.90
37998;DHT22;24079;51.824;4.682;2023-03-11T09:37:50;7.40;99.90
37998;DHT22;24079;51.824;4.682;2023-03-11T09:40:19;7.20;99.90
37998;DHT22;24079;51.824;4.682;2023-03-11T09:45:37;7.00;99.90
37998;DHT22;24079;51.824;4.682;2023-03-11T09:51:28;7.00;99.90
37998;DHT22;24079;51.824;4.682;2023-03-11T09:56:07;7.20;99.90
37998;DHT22;24079;51.824;4.682;2023-03-11T09:58:35;7.20;99.90
37998;DHT22;24079;51.824;4.682;2023-03-11T10:01:20;7.30;99.90
37998;DHT22;24079;51.824;4.682;2023-03-11T10:03:49;7.40;99.90
37998;DHT22;24079;51.824;4.682;2023-03-11T10:06:27;7.40;99.90
37998;DHT22;24079;51.824;4.682;2023-03-11T10:12:01;7.60;99.90
37998;DHT22;24079;51.824;4.682;2023-03-11T10:20:45;7.70;99.90
37998;DHT22;24079;51.824;4.682;2023-03-11T10:28:32;7.70;99.90
37998;DHT22;24079;51.824;4.682;2023-03-11T10:33:49;7.80;99.90
37998;DHT22;24079;51.824;4.682;2023-03-11T10:36:23;7.80;99.90
37998;DHT22;24079;51.824;4.682;2023-03-11T10:38:53;7.60;99.90
37998;DHT22;24079;51.824;4.682;2023-03-11T10:41:20;7.60;99.90
37998;DHT22;24079;51.824;4.682;2023-03-11T10:44:01;7.50;99.90
37998;DHT22;24079;51.824;4.682;2023-03-11T10:46:28;7.60;99.90
37998;DHT22;24079;51.824;4.682;2023-03-11T10:48:54;7.50;99.90
37998;DHT22;24079;51.824;4.682;2023-03-11T10:51:23;7.50;99.90
37998;DHT22;24079;51.824;4.682;2023-03-11T10:53:53;7.60;99.90
37998;DHT22;24079;51.824;4.682;2023-03-11T10:56:34;7.60;99.90
37998;DHT22;24079;51.824;4.682;2023-03-11T10:59:02;7.50;99.90
37998;DHT22;24079;51.824;4.682;2023-03-11T11:01:28;7.70;99.90
37998;DHT22;24079;51.824;4.682;2023-03-11T11:03:56;7.70;99.90
37998;DHT22;24079;51.824;4.682;2023-03-11T11:06:33;7.60;99.90
37998;DHT22;24079;51.824;4.682;2023-03-11T11:09:17;7.40;99.90
37998;DHT22;24079;51.824;4.682;2023-03-11T11:12:15;7.50;99.90
37998;DHT22;24079;51.824;4.682;2023-03-11T11:14:47;7.50;99.90
37998;DHT22;24079;51.824;4.682;2023-03-11T11:17:22;7.50;99.90
37998;DHT22;24079;51.824;4.682;2023-03-11T11:19:50;7.70;99.90
37998;DHT22;24079;51.824;4.682;2023-03-11T11:22:20;7.70;99.90
37998;DHT22;24079;51.824;4.682;2023-03-11T11:24:48;7.70;99.90
37998;DHT22;24079;51.824;4.682;2023-03-11T11:27:27;7.70;99.90
37998;DHT22;24079;51.824;4.682;2023-03-11T11:30:14;7.90;99.90
37998;DHT22;24079;51.824;4.682;2023-03-11T11:32:40;7.90;99.90
37998;DHT22;24079;51.824;4.682;2023-03-11T11:35:10;7.90;99.90
37998;DHT22;24079;51.824;4.682;2023-03-11T11:37:38;8.00;99.90
37998;DHT22;24079;51.824;4.682;2023-03-11T11:43:05;7.90;99.90
37998;DHT22;24079;51.824;4.682;2023-03-11T11:45:35;7.80;99.90
37998;DHT22;24079;51.824;4.682;2023-03-11T11:48:11;7.70;99.90
37998;DHT22;24079;51.824;4.682;2023-03-11T11:50:42;7.70;99.90
37998;DHT22;24079;51.824;4.682;2023-03-11T11:53:43;7.60;99.90
37998;DHT22;24079;51.824;4.682;2023-03-11T11:56:11;7.60;99.90
37998;DHT22;24079;51.824;4.682;2023-03-11T11:58:38;7.60;99.90
37998;DHT22;24079;51.824;4.682;2023-03-11T12:09:35;7.70;99.90
37998;DHT22;24079;51.824;4.682;2023-03-11T12:12:26;7.70;99.90
37998;DHT22;24079;51.824;4.682;2023-03-11T12:17:36;7.70;99.90
37998;DHT22;24079;51.824;4.682;2023-03-11T12:28:23;7.70;99.90
37998;DHT22;24079;51.824;4.682;2023-03-11T12:31:01;7.80;99.90
37998;DHT22;24079;51.824;4.682;2023-03-11T12:33:44;7.70;99.90
37998;DHT22;24079;51.824;4.682;2023-03-11T12:36:28;7.60;99.90
37998;DHT22;24079;51.824;4.682;2023-03-11T12:38:54;7.50;99.90
37998;DHT22;24079;51.824;4.682;2023-03-11T12:41:34;7.60;99.90
37998;DHT22;24079;51.824;4.682;2023-03-11T12:47:24;7.80;99.90
37998;DHT22;24079;51.824;4.682;2023-03-11T12:49:54;7.90;99.90
37998;DHT22;24079;51.824;4.682;2023-03-11T12:52:25;8.00;99.90
37998;DHT22;24079;51.824;4.682;2023-03-11T12:57:35;7.90;99.90
37998;DHT22;24079;51.824;4.682;2023-03-11T13:06:30;8.00;99.90
37998;DHT22;24079;51.824;4.682;2023-03-11T13:08:59;8.00;99.90
37998;DHT22;24079;51.824;4.682;2023-03-11T13:16:51;8.00;99.90
37998;DHT22;24079;51.824;4.682;2023-03-11T13:19:33;8.10;99.90
37998;DHT22;24079;51.824;4.682;2023-03-11T13:22:01;8.10;99.90
37998;DHT22;24079;51.824;4.682;2023-03-11T13:27:01;8.10;99.90
37998;DHT22;24079;51.824;4.682;2023-03-11T13:29:52;8.10;99.90
37998;DHT22;24079;51.824;4.682;2023-03-11T13:40:51;8.10;99.90
37998;DHT22;24079;51.824;4.682;2023-03-11T13:43:21;8.20;99.90
37998;DHT22;24079;51.824;4.682;2023-03-11T13:48:20;8.10;99.90
37998;DHT22;24079;51.824;4.682;2023-03-11T13:50:57;8.20;99.90
37998;DHT22;24079;51.824;4.682;2023-03-11T13:53:28;8.30;99.90
37998;DHT22;24079;51.824;4.682;2023-03-11T13:55:56;8.30;99.90
37998;DHT22;24079;51.824;4.682;2023-03-11T13:58:26;8.20;99.90
37998;DHT22;24079;51.824;4.682;2023-03-11T14:00:57;8.20;99.90
37998;DHT22;24079;51.824;4.682;2023-03-11T14:03:25;8.20;99.90
37998;DHT22;24079;51.824;4.682;2023-03-11T14:06:00;8.20;99.90
37998;DHT22;24079;51.824;4.682;2023-03-11T14:08:36;8.20;99.90
37998;DHT22;24079;51.824;4.682;2023-03-11T14:11:15;8.20;99.90
37998;DHT22;24079;51.824;4.682;2023-03-11T14:13:43;8.20;99.90
37998;DHT22;24079;51.824;4.682;2023-03-11T14:16:22;8.20;99.90
37998;DHT22;24079;51.824;4.682;2023-03-11T14:19:12;8.30;99.90
37998;DHT22;24079;51.824;4.682;2023-03-11T14:21:46;8.30;99.90
37998;DHT22;24079;51.824;4.682;2023-03-11T14:39:42;8.30;99.90
37998;DHT22;24079;51.824;4.682;2023-03-11T14:44:47;8.30;99.90
37998;DHT22;24079;51.824;4.682;2023-03-11T14:47:26;8.10;99.90
37998;DHT22;24079;51.824;4.682;2023-03-11T14:49:55;7.90;99.90
37998;DHT22;24079;51.824;4.682;2023-03-11T14:52:37;7.90;99.90
37998;DHT22;24079;51.824;4.682;2023-03-11T14:55:10;7.80;99.90
37998;DHT22;24079;51.824;4.682;2023-03-11T14:57:51;7.80;99.90
37998;DHT22;24079;51.824;4.682;2023-03-11T15:00:23;7.70;99.90
37998;DHT22;24079;51.824;4.682;2023-03-11T15:03:00;7.80;99.90
37998;DHT22;24079;51.824;4.682;2023-03-11T15:05:34;8.00;99.90
37998;DHT22;24079;51.824;4.682;2023-03-11T15:08:03;8.00;99.90
37998;DHT22;24079;51.824;4.682;2023-03-11T15:10:32;8.00;99.90
37998;DHT22;24079;51.824;4.682;2023-03-11T15:13:15;7.90;99.90
37998;DHT22;24079;51.824;4.682;2023-03-11T15:15:41;7.90;99.90
37998;DHT22;24079;51.824;4.682;2023-03-11T15:18:26;7.90;99.90
37998;DHT22;24079;51.824;4.682;2023-03-11T15:21:13;7.90;99.90
37998;DHT22;24079;51.824;4.682;2023-03-11T15:24:01;8.00;99.90
37998;DHT22;24079;51.824;4.682;2023-03-11T15:26:34;8.00;99.90
37998;DHT22;24079;51.824;4.682;2023-03-11T15:29:12;8.10;99.90
37998;DHT22;24079;51.824;4.682;2023-03-11T15:31:39;8.00;99.90
37998;DHT22;24079;51.824;4.682;2023-03-11T15:34:25;8.00;99.90
37998;DHT22;24079;51.824;4.682;2023-03-11T15:36:55;8.00;99.90
37998;DHT22;24079;51.824;4.682;2023-03-11T15:47:22;7.80;99.90
37998;DHT22;24079;51.824;4.682;2023-03-11T15:49:48;7.90;99.90
37998;DHT22;24079;51.824;4.682;2023-03-11T15:52:14;7.90;99.90
37998;DHT22;24079;51.824;4.682;2023-03-11T15:54:41;7.80;99.90
37998;DHT22;24079;51.824;4.682;2023-03-11T15:57:26;7.80;99.90
37998;DHT22;24079;51.824;4.682;2023-03-11T15:59:53;7.80;99.90
37998;DHT22;24079;51.824;4.682;2023-03-11T16:02:23;7.80;99.90
37998;DHT22;24079;51.824;4.682;2023-03-11T16:04:49;7.70;99.90
37998;DHT22;24079;51.824;4.682;2023-03-11T16:07:23;7.70;99.90
37998;DHT22;24079;51.824;4.682;2023-03-11T16:09:49;7.60;99.90
37998;DHT22;24079;51.824;4.682;2023-03-11T16:12:22;7.50;99.90
37998;DHT22;24079;51.824;4.682;2023-03-11T16:14:49;7.40;99.90
37998;DHT22;24079;51.824;4.682;2023-03-11T16:17:14;7.30;99.90
37998;DHT22;24079;51.824;4.682;2023-03-11T16:24:47;7.10;99.90
37998;DHT22;24079;51.824;4.682;2023-03-11T16:27:14;7.10;99.90
37998;DHT22;24079;51.824;4.682;2023-03-11T16:29:40;7.00;99.90
37998;DHT22;24079;51.824;4.682;2023-03-11T16:32:05;7.00;99.90
37998;DHT22;24079;51.824;4.682;2023-03-11T16:34:31;6.80;99.90
37998;DHT22;24079;51.824;4.682;2023-03-11T16:36:57;6.70;99.90
37998;DHT22;24079;51.824;4.682;2023-03-11T16:39:23;6.60;99.90
37998;DHT22;24079;51.824;4.682;2023-03-11T16:41:49;6.60;99.90
37998;DHT22;24079;51.824;4.682;2023-03-11T16:44:15;6.60;99.90
37998;DHT22;24079;51.824;4.682;2023-03-11T16:46:41;6.50;99.90
37998;DHT22;24079;51.824;4.682;2023-03-11T16:49:07;6.50;99.90
37998;DHT22;24079;51.824;4.682;2023-03-11T16:51:34;6.50;99.90
37998;DHT22;24079;51.824;4.682;2023-03-11T16:54:00;6.50;99.90
37998;DHT22;24079;51.824;4.682;2023-03-11T16:56:26;6.50;99.90
37998;DHT22;24079;51.824;4.682;2023-03-11T16:58:52;6.50;99.90
37998;DHT22;24079;51.824;4.682;2023-03-11T17:01:19;6.50;99.90
37998;DHT22;24079;51.824;4.682;2023-03-11T17:03:46;6.40;99.90
37998;DHT22;24079;51.824;4.682;2023-03-11T17:06:14;6.40;99.90
37998;DHT22;24079;51.824;4.682;2023-03-11T17:08:40;6.30;99.90
37998;DHT22;24079;51.824;4.682;2023-03-11T17:11:13;6.30;99.90
37998;DHT22;24079;51.824;4.682;2023-03-11T17:13:38;6.40;99.90
37998;DHT22;24079;51.824;4.682;2023-03-11T17:16:04;6.40;99.90
37998;DHT22;24079;51.824;4.682;2023-03-11T17:18:31;6.40;99.90
37998;DHT22;24079;51.824;4.682;2023-03-11T17:20:56;6.40;99.90
37998;DHT22;24079;51.824;4.682;2023-03-11T17:23:22;6.30;99.90
37998;DHT22;24079;51.824;4.682;2023-03-11T17:25:47;6.20;99.90
37998;DHT22;24079;51.824;4.682;2023-03-11T17:28:13;6.10;99.90
37998;DHT22;24079;51.824;4.682;2023-03-11T17:30:43;6.00;99.90
37998;DHT22;24079;51.824;4.682;2023-03-11T17:33:08;6.10;99.90
37998;DHT22;24079;51.824;4.682;2023-03-11T17:35:34;6.30;99.90
37998;DHT22;24079;51.824;4.682;2023-03-11T17:38:00;6.20;99.90
37998;DHT22;24079;51.824;4.682;2023-03-11T17:40:26;6.10;99.90
37998;DHT22;24079;51.824;4.682;2023-03-11T17:42:53;6.00;99.90
37998;DHT22;24079;51.824;4.682;2023-03-11T17:45:19;5.90;99.90
37998;DHT22;24079;51.824;4.682;2023-03-11T17:47:45;5.90;99.90
37998;DHT22;24079;51.824;4.682;2023-03-11T17:50:11;5.80;99.90
37998;DHT22;24079;51.824;4.682;2023-03-11T17:52:38;5.90;99.90